Time;durP1;ratioP1;P1;durP2;ratioP2;P2;SDS_P1;SDS_P2;PMS_P1;PMS_P2;Temp;Humidity;BMP_temperature;BMP_pressure;BME280_temperature;BME280_humidity;BME280_pressure;Samples;Min_cycle;Max_cycle;Signal;HPM_P1;HPM_P2
2021/12/11 00:02:43;;;;;;;24.27;12.63;;;;;;;;;;6299832;28;20044;-78
2021/12/11 00:05:51;;;;;;;27.02;12.63;;;;;;;;;;6300005;28;20044;-79
2021/12/11 00:08:57;;;;;;;24.80;11.63;;;;;;;;;;6294585;28;20186;-81
2021/12/11 00:12:22;;;;;;;23.23;11.32;;;;;;;;;;6291184;28;20037;-80
2021/12/11 00:15:27;;;;;;;22.20;11.18;;;;;;;;;;6305836;28;20119;-78
2021/12/11 00:18:30;;;;;;;24.13;11.45;;;;;;;;;;6300926;28;20044;-82
2021/12/11 00:21:32;;;;;;;20.33;10.33;;;;;;;;;;6296584;28;20133;-81
2021/12/11 00:24:35;;;;;;;20.77;11.20;;;;;;;;;;6284606;28;20437;-79
2021/12/11 00:27:41;;;;;;;19.42;10.38;;;;;;;;;;6275019;28;20608;-78
2021/12/11 00:30:45;;;;;;;21.10;10.52;;;;;;;;;;6292377;28;20649;-81
2021/12/11 00:33:47;;;;;;;23.38;10.82;;;;;;;;;;6299635;28;20111;-78
2021/12/11 00:36:56;;;;;;;21.93;10.33;;;;;;;;;;6319009;28;20508;-79
2021/12/11 00:40:29;;;;;;;22.77;11.38;;;;;;;;;;6285672;28;20048;-80
2021/12/11 00:43:34;;;;;;;20.97;9.77;;;;;;;;;;6264769;28;20424;-79
2021/12/11 00:46:36;;;;;;;18.83;9.80;;;;;;;;;;6275339;28;20446;-79
2021/12/11 00:49:51;;;;;;;17.63;9.05;;;;;;;;;;6282215;28;20051;-79
2021/12/11 00:53:18;;;;;;;18.75;8.70;;;;;;;;;;6313653;28;20036;-81
2021/12/11 00:56:28;;;;;;;16.63;9.18;;;;;;;;;;6286125;28;20050;-81
2021/12/11 00:59:30;;;;;;;20.83;9.15;;;;;;;;;;6312938;28;20048;-81
2021/12/11 01:02:31;;;;;;;18.20;8.57;;;;;;;;;;6291529;28;20044;-80
2021/12/11 01:05:39;;;;;;;19.67;9.57;;;;;;;;;;6292020;28;20421;-81
2021/12/11 01:08:47;;;;;;;19.50;8.95;;;;;;;;;;6276973;28;20064;-82
2021/12/11 01:12:04;;;;;;;18.85;8.57;;;;;;;;;;6297738;28;20044;-81
2021/12/11 01:15:26;;;;;;;17.38;9.93;;;;;;;;;;6288561;28;20608;-78
2021/12/11 01:18:36;;;;;;;16.40;8.80;;;;;;;;;;6272805;28;20582;-80
2021/12/11 01:24:44;;;;;;;21.15;9.32;;;;;;;;;;6297473;28;20507;-78
2021/12/11 01:27:52;;;;;;;18.67;10.07;;;;;;;;;;6277906;28;20052;-79
2021/12/11 01:30:54;;;;;;;19.92;9.88;;;;;;;;;;6287334;28;20047;-80
2021/12/11 01:33:56;;;;;;;21.50;10.02;;;;;;;;;;6270831;28;20048;-81
2021/12/11 01:36:59;;;;;;;19.77;9.18;;;;;;;;;;6288625;28;20509;-81
2021/12/11 01:40:06;;;;;;;20.75;9.32;;;;;;;;;;6253968;28;20044;-79
2021/12/11 01:43:09;;;;;;;20.02;9.02;;;;;;;;;;6287861;28;20077;-80
2021/12/11 01:46:11;;;;;;;18.38;8.50;;;;;;;;;;6271883;28;20595;-80
2021/12/11 01:49:19;;;;;;;15.35;7.38;;;;;;;;;;6288022;28;20083;-81
2021/12/11 01:52:32;;;;;;;14.25;7.72;;;;;;;;;;6289459;28;20044;-81
2021/12/11 01:56:01;;;;;;;13.45;6.63;;;;;;;;;;6279412;28;20051;-79
2021/12/11 01:59:08;;;;;;;12.60;6.70;;;;;;;;;;6276437;28;20063;-79
2021/12/11 02:02:20;;;;;;;17.80;6.97;;;;;;;;;;6272786;28;20039;-81
2021/12/11 02:05:27;;;;;;;14.68;7.28;;;;;;;;;;6289364;28;20063;-81
2021/12/11 02:08:32;;;;;;;16.58;6.93;;;;;;;;;;6279662;28;20044;-77
2021/12/11 02:11:34;;;;;;;13.13;7.00;;;;;;;;;;6288613;28;20048;-79
2021/12/11 02:14:41;;;;;;;12.73;6.78;;;;;;;;;;6290072;28;20118;-80
2021/12/11 02:18:00;;;;;;;11.85;6.90;;;;;;;;;;6271360;28;20127;-79
2021/12/11 02:21:13;;;;;;;14.80;6.95;;;;;;;;;;6267234;28;20080;-78
2021/12/11 02:24:20;;;;;;;13.88;6.68;;;;;;;;;;6267362;28;20129;-81
2021/12/11 02:27:25;;;;;;;13.13;6.68;;;;;;;;;;6300974;28;20044;-80
2021/12/11 02:30:43;;;;;;;9.70;6.15;;;;;;;;;;6292698;28;20400;-80
2021/12/11 02:33:45;;;;;;;11.23;5.78;;;;;;;;;;6294375;28;20044;-81
2021/12/11 02:36:57;;;;;;;8.73;5.47;;;;;;;;;;6286758;28;20048;-81
2021/12/11 02:40:10;;;;;;;11.48;6.38;;;;;;;;;;6274115;28;20516;-79
2021/12/11 02:43:39;;;;;;;10.88;6.55;;;;;;;;;;6292394;28;20127;-80
2021/12/11 02:47:07;;;;;;;10.40;6.13;;;;;;;;;;6277804;28;20047;-81
2021/12/11 02:50:15;;;;;;;12.73;6.18;;;;;;;;;;6280035;28;20146;-80
2021/12/11 02:53:49;;;;;;;9.38;5.75;;;;;;;;;;6300569;28;20040;-79
2021/12/11 02:57:04;;;;;;;11.18;5.40;;;;;;;;;;6284024;28;20089;-81
2021/12/11 03:00:28;;;;;;;10.85;5.07;;;;;;;;;;6285620;28;20386;-80
2021/12/11 03:03:40;;;;;;;12.57;6.00;;;;;;;;;;6295447;28;20566;-78
2021/12/11 03:06:45;;;;;;;12.32;6.28;;;;;;;;;;6304203;28;20418;-80
2021/12/11 03:09:51;;;;;;;14.48;6.07;;;;;;;;;;6313089;28;20055;-79
2021/12/11 03:12:55;;;;;;;11.63;6.00;;;;;;;;;;6299191;28;20048;-78
2021/12/11 03:15:58;;;;;;;16.02;5.95;;;;;;;;;;6284110;28;20178;-80
2021/12/11 03:19:01;;;;;;;11.43;6.07;;;;;;;;;;6317367;28;20044;-81
2021/12/11 03:22:06;;;;;;;11.63;5.93;;;;;;;;;;6293763;28;20041;-78
2021/12/11 03:25:11;;;;;;;12.43;5.68;;;;;;;;;;6259063;28;20060;-80
2021/12/11 03:28:16;;;;;;;9.15;5.40;;;;;;;;;;6262756;28;20161;-80
2021/12/11 03:31:17;;;;;;;14.15;6.82;;;;;;;;;;6300343;28;20052;-78
2021/12/11 03:34:23;;;;;;;12.68;6.57;;;;;;;;;;6317816;28;20063;-81
2021/12/11 03:37:25;;;;;;;11.48;6.55;;;;;;;;;;6298435;28;20123;-81
2021/12/11 03:40:27;;;;;;;16.02;6.82;;;;;;;;;;6308962;28;20040;-80
2021/12/11 03:43:29;;;;;;;13.38;6.47;;;;;;;;;;6315698;28;20048;-77
2021/12/11 03:46:31;;;;;;;12.30;7.15;;;;;;;;;;6292370;28;20564;-79
2021/12/11 03:49:33;;;;;;;12.68;6.55;;;;;;;;;;6317955;28;20496;-80
2021/12/11 03:52:35;;;;;;;14.23;7.60;;;;;;;;;;6296585;28;20065;-79
2021/12/11 03:55:42;;;;;;;16.10;6.88;;;;;;;;;;6282628;28;20050;-78
2021/12/11 03:58:49;;;;;;;13.18;7.43;;;;;;;;;;6295682;28;20064;-81
2021/12/11 04:01:56;;;;;;;13.57;7.40;;;;;;;;;;6257463;28;20048;-81
2021/12/11 04:05:02;;;;;;;14.60;7.85;;;;;;;;;;6258000;28;20045;-79
2021/12/11 04:08:06;;;;;;;13.88;7.65;;;;;;;;;;6297137;28;20189;-79
2021/12/11 04:11:11;;;;;;;15.55;8.50;;;;;;;;;;6313527;28;20040;-80
2021/12/11 04:14:17;;;;;;;16.08;7.63;;;;;;;;;;6298533;28;20158;-80
2021/12/11 04:17:22;;;;;;;13.32;7.25;;;;;;;;;;6298543;28;20076;-80
2021/12/11 04:20:28;;;;;;;16.17;8.85;;;;;;;;;;6315223;28;20122;-79
2021/12/11 04:23:30;;;;;;;18.45;9.27;;;;;;;;;;6290065;28;20048;-81
2021/12/11 04:26:33;;;;;;;17.03;8.93;;;;;;;;;;6273923;28;20059;-80
2021/12/11 04:29:35;;;;;;;17.00;8.85;;;;;;;;;;6279575;28;20040;-81
2021/12/11 04:32:38;;;;;;;19.88;9.65;;;;;;;;;;6298509;28;20043;-81
2021/12/11 04:35:43;;;;;;;;;;;;;;;;;;6299532;28;20058;-80
2021/12/11 04:38:46;;;;;;;20.58;8.40;;;;;;;;;;6314100;28;19927;-81
2021/12/11 04:42:04;;;;;;;19.67;8.77;;;;;;;;;;6283848;28;20054;-78
2021/12/11 04:45:10;;;;;;;21.42;9.98;;;;;;;;;;6271385;28;20044;-79
2021/12/11 04:48:42;;;;;;;25.65;11.75;;;;;;;;;;6273803;28;20125;-78
2021/12/11 04:51:51;;;;;;;28.97;12.67;;;;;;;;;;6289917;28;20040;-80
2021/12/11 04:55:14;;;;;;;22.48;11.80;;;;;;;;;;6293294;28;20933;-80
2021/12/11 04:58:39;;;;;;;25.80;11.70;;;;;;;;;;6290117;28;20125;-80
2021/12/11 05:05:06;;;;;;;30.27;12.23;;;;;;;;;;6266813;28;20439;-79
2021/12/11 05:11:16;;;;;;;26.50;11.30;;;;;;;;;;6307566;28;20769;-78
2021/12/11 05:14:20;;;;;;;27.63;11.68;;;;;;;;;;6284154;28;20095;-78
2021/12/11 05:17:23;;;;;;;24.65;11.70;;;;;;;;;;6280110;28;20859;-80
2021/12/11 05:20:30;;;;;;;23.90;11.90;;;;;;;;;;6290774;28;20114;-79
2021/12/11 05:23:32;;;;;;;26.40;11.68;;;;;;;;;;6290179;28;20044;-80
2021/12/11 05:26:35;;;;;;;24.83;12.65;;;;;;;;;;6309367;28;20131;-79
2021/12/11 05:29:38;;;;;;;25.70;11.88;;;;;;;;;;6300916;28;20727;-78
2021/12/11 05:32:39;;;;;;;26.30;11.87;;;;;;;;;;6295505;28;20052;-80
2021/12/11 05:35:42;;;;;;;31.17;12.63;;;;;;;;;;6314833;28;20145;-78
2021/12/11 05:38:47;;;;;;;30.30;12.48;;;;;;;;;;6283876;28;20046;-78
2021/12/11 05:41:51;;;;;;;25.55;12.18;;;;;;;;;;6296292;28;20056;-81
2021/12/11 05:44:52;;;;;;;27.58;12.18;;;;;;;;;;6304367;28;20066;-81
2021/12/11 05:47:55;;;;;;;30.40;13.38;;;;;;;;;;6276368;28;20400;-81
2021/12/11 05:51:01;;;;;;;41.20;15.13;;;;;;;;;;6273323;28;20130;-81
2021/12/11 05:54:04;;;;;;;39.38;15.68;;;;;;;;;;6287795;28;20048;-79
2021/12/11 05:57:11;;;;;;;45.25;16.20;;;;;;;;;;6297305;28;20040;-81
2021/12/11 06:00:13;;;;;;;49.38;16.58;;;;;;;;;;6292116;28;20078;-77
2021/12/11 06:03:31;;;;;;;41.97;15.93;;;;;;;;;;6257788;28;20051;-81
2021/12/11 06:06:35;;;;;;;46.55;16.42;;;;;;;;;;6293339;28;20056;-80
2021/12/11 06:09:39;;;;;;;39.53;15.77;;;;;;;;;;6280953;28;20044;-81
2021/12/11 06:12:41;;;;;;;45.70;16.95;;;;;;;;;;6313463;28;20047;-79
2021/12/11 06:15:43;;;;;;;43.35;16.40;;;;;;;;;;6304878;28;20040;-81
2021/12/11 06:18:45;;;;;;;43.63;15.95;;;;;;;;;;6276124;28;20438;-80
2021/12/11 06:21:48;;;;;;;39.77;15.93;;;;;;;;;;6277180;28;20127;-82
2021/12/11 06:24:51;;;;;;;41.80;16.33;;;;;;;;;;6280444;28;20454;-80
2021/12/11 06:27:54;;;;;;;40.78;16.88;;;;;;;;;;6293274;28;20501;-81
2021/12/11 06:30:58;;;;;;;37.80;14.90;;;;;;;;;;6305524;28;20130;-80
2021/12/11 06:34:00;;;;;;;48.83;17.13;;;;;;;;;;6285254;28;20097;-81
2021/12/11 06:37:04;;;;;;;41.08;17.10;;;;;;;;;;6278275;28;20050;-80
2021/12/11 06:40:07;;;;;;;45.90;16.95;;;;;;;;;;6271341;28;20048;-80
2021/12/11 06:43:10;;;;;;;46.20;16.70;;;;;;;;;;6262359;28;20044;-81
2021/12/11 06:46:11;;;;;;;39.10;15.37;;;;;;;;;;6277742;28;20056;-79
2021/12/11 06:49:13;;;;;;;41.28;15.73;;;;;;;;;;6276268;28;20052;-79
2021/12/11 06:52:18;;;;;;;44.80;14.95;;;;;;;;;;6298670;28;20051;-83
2021/12/11 06:55:21;;;;;;;42.42;14.73;;;;;;;;;;6299156;28;20052;-80
2021/12/11 06:58:23;;;;;;;45.35;16.05;;;;;;;;;;6299405;28;20409;-80
2021/12/11 07:01:26;;;;;;;37.08;14.25;;;;;;;;;;6256877;28;20049;-80
2021/12/11 07:04:29;;;;;;;35.28;13.00;;;;;;;;;;6277538;28;20052;-79
2021/12/11 07:07:35;;;;;;;37.97;14.90;;;;;;;;;;6268889;28;20032;-79
2021/12/11 07:10:38;;;;;;;42.05;15.15;;;;;;;;;;6299938;28;20048;-80
2021/12/11 07:13:41;;;;;;;37.63;14.85;;;;;;;;;;6296842;28;20677;-79
2021/12/11 07:16:44;;;;;;;;;;;;;;;;;;6278281;28;20047;-78
2021/12/11 07:19:46;;;;;;;40.92;14.55;;;;;;;;;;6319627;28;19931;-79
2021/12/11 07:22:48;;;;;;;40.63;13.88;;;;;;;;;;6294778;28;20048;-80
2021/12/11 07:26:03;;;;;;;45.85;14.85;;;;;;;;;;6283120;28;20040;-79
2021/12/11 07:29:10;;;;;;;44.50;15.55;;;;;;;;;;6291574;28;20054;-80
2021/12/11 07:32:12;;;;;;;41.40;13.48;;;;;;;;;;6299931;28;20044;-78
2021/12/11 07:35:14;;;;;;;40.53;14.85;;;;;;;;;;6301398;28;20121;-80
2021/12/11 07:38:16;;;;;;;38.47;13.60;;;;;;;;;;6299647;28;20043;-79
2021/12/11 07:41:19;;;;;;;43.97;15.05;;;;;;;;;;6299812;28;20617;-79
2021/12/11 07:44:23;;;;;;;36.63;13.32;;;;;;;;;;6292584;28;20174;-77
2021/12/11 07:47:25;;;;;;;44.03;15.15;;;;;;;;;;6298763;28;20043;-78
2021/12/11 07:50:27;;;;;;;42.95;13.20;;;;;;;;;;6280822;28;20055;-78
2021/12/11 07:53:29;;;;;;;41.33;14.23;;;;;;;;;;6281305;28;20115;-77
2021/12/11 07:56:32;;;;;;;38.15;13.25;;;;;;;;;;6282294;28;20432;-77
2021/12/11 07:59:35;;;;;;;;;;;;;;;;;;6289875;28;20066;-79
2021/12/11 08:02:37;;;;;;;49.22;15.00;;;;;;;;;;6302320;28;19920;-79
2021/12/11 08:05:41;;;;;;;37.45;13.48;;;;;;;;;;6292267;28;20044;-79
2021/12/11 08:08:44;;;;;;;32.95;13.13;;;;;;;;;;6293763;28;20044;-77
2021/12/11 08:11:47;;;;;;;39.88;13.68;;;;;;;;;;6308645;28;20094;-78
2021/12/11 08:14:50;;;;;;;41.03;14.38;;;;;;;;;;6275980;28;20578;-79
2021/12/11 08:17:54;;;;;;;34.17;12.57;;;;;;;;;;6273488;28;20074;-80
2021/12/11 08:20:56;;;;;;;41.38;13.48;;;;;;;;;;6276870;28;20048;-79
2021/12/11 08:24:04;;;;;;;38.53;13.05;;;;;;;;;;6309967;28;20681;-79
2021/12/11 08:27:11;;;;;;;35.65;13.25;;;;;;;;;;6291241;28;20044;-79
2021/12/11 08:30:13;;;;;;;34.65;12.13;;;;;;;;;;6277882;28;20566;-78
2021/12/11 08:33:16;;;;;;;38.28;12.90;;;;;;;;;;6308378;28;20163;-79
2021/12/11 08:36:17;;;;;;;35.22;12.50;;;;;;;;;;6279769;28;20044;-80
2021/12/11 08:39:20;;;;;;;34.90;11.85;;;;;;;;;;6308237;28;20044;-79
2021/12/11 08:42:24;;;;;;;34.40;12.45;;;;;;;;;;6315993;28;20040;-78
2021/12/11 08:45:43;;;;;;;40.25;12.55;;;;;;;;;;6276023;28;20067;-80
2021/12/11 08:48:47;;;;;;;33.58;11.68;;;;;;;;;;6292746;28;20050;-78
2021/12/11 08:51:51;;;;;;;;;;;;;;;;;;6299339;28;20126;-78
2021/12/11 08:54:54;;;;;;;31.60;11.10;;;;;;;;;;6314469;28;20292;-79
2021/12/11 08:57:56;;;;;;;35.47;12.63;;;;;;;;;;6297883;28;20062;-79
2021/12/11 09:01:11;;;;;;;32.33;11.35;;;;;;;;;;6265517;28;20119;-80
2021/12/11 09:04:22;;;;;;;32.50;10.80;;;;;;;;;;6299258;28;20040;-79
2021/12/11 09:07:34;;;;;;;40.35;13.07;;;;;;;;;;6290481;28;20048;-79
2021/12/11 09:10:47;;;;;;;37.60;12.30;;;;;;;;;;6306645;28;20107;-79
2021/12/11 09:13:59;;;;;;;37.25;10.80;;;;;;;;;;6293142;28;20050;-80
2021/12/11 09:17:25;;;;;;;34.30;11.57;;;;;;;;;;6287018;28;20401;-79
2021/12/11 09:20:38;;;;;;;31.83;11.20;;;;;;;;;;6295764;28;20131;-80
2021/12/11 09:23:48;;;;;;;36.67;11.50;;;;;;;;;;6300536;28;20143;-78
2021/12/11 09:27:19;;;;;;;31.52;11.38;;;;;;;;;;6292375;28;20040;-78
2021/12/11 09:30:37;;;;;;;37.42;12.23;;;;;;;;;;6280637;28;20500;-76
2021/12/11 09:33:52;;;;;;;32.45;9.45;;;;;;;;;;6294526;28;20770;-78
2021/12/11 09:36:59;;;;;;;31.33;10.55;;;;;;;;;;6302629;28;20040;-79
2021/12/11 09:40:07;;;;;;;32.22;10.13;;;;;;;;;;6299959;28;20036;-80
2021/12/11 09:43:24;;;;;;;25.83;8.57;;;;;;;;;;6290294;28;20048;-79
2021/12/11 09:46:39;;;;;;;28.65;10.15;;;;;;;;;;6297481;28;20670;-79
2021/12/11 09:49:45;;;;;;;25.38;8.43;;;;;;;;;;6304738;28;20032;-79
2021/12/11 09:52:49;;;;;;;29.60;9.82;;;;;;;;;;6287074;28;20508;-79
2021/12/11 09:55:51;;;;;;;25.90;9.35;;;;;;;;;;6271307;28;20037;-80
2021/12/11 09:58:53;;;;;;;30.42;10.35;;;;;;;;;;6304688;28;20074;-79
2021/12/11 10:02:00;;;;;;;30.35;9.05;;;;;;;;;;6286775;28;20036;-80
2021/12/11 10:05:29;;;;;;;30.58;10.07;;;;;;;;;;6282175;28;20043;-80
2021/12/11 10:08:40;;;;;;;31.08;10.15;;;;;;;;;;6277307;28;20048;-80
2021/12/11 10:11:43;;;;;;;34.13;9.80;;;;;;;;;;6289410;28;20047;-79
2021/12/11 10:14:53;;;;;;;31.73;10.53;;;;;;;;;;6273724;28;20097;-80
2021/12/11 10:18:01;;;;;;;32.97;11.63;;;;;;;;;;6290439;28;20848;-79
2021/12/11 10:21:35;;;;;;;35.00;10.25;;;;;;;;;;6287388;28;20055;-79
2021/12/11 10:24:38;;;;;;;29.10;10.88;;;;;;;;;;6268486;28;20054;-79
2021/12/11 10:27:41;;;;;;;33.42;10.23;;;;;;;;;;6288634;28;20171;-78
2021/12/11 10:30:48;;;;;;;36.13;10.27;;;;;;;;;;6278125;28;20047;-79
2021/12/11 10:33:50;;;;;;;38.35;10.77;;;;;;;;;;6300997;28;20778;-79
2021/12/11 10:37:07;;;;;;;30.08;10.23;;;;;;;;;;6303650;28;20048;-78
2021/12/11 10:40:24;;;;;;;29.80;10.02;;;;;;;;;;6304999;28;20048;-78
2021/12/11 10:43:53;;;;;;;31.23;10.52;;;;;;;;;;6304303;28;20048;-79
2021/12/11 10:47:13;;;;;;;29.98;10.23;;;;;;;;;;6302228;28;20152;-79
2021/12/11 10:50:46;;;;;;;26.52;10.63;;;;;;;;;;6313403;28;20051;-78
2021/12/11 10:53:49;;;;;;;31.85;10.45;;;;;;;;;;6281072;28;20055;-78
2021/12/11 10:56:52;;;;;;;28.55;10.73;;;;;;;;;;6314208;28;20058;-78
2021/12/11 10:59:57;;;;;;;31.10;11.40;;;;;;;;;;6289005;28;20104;-80
2021/12/11 11:02:59;;;;;;;28.33;9.48;;;;;;;;;;6297803;28;20071;-80
2021/12/11 11:06:03;;;;;;;31.95;10.38;;;;;;;;;;6294815;28;20417;-79
2021/12/11 11:09:06;;;;;;;29.00;10.15;;;;;;;;;;6293015;28;20370;-78
2021/12/11 11:12:12;;;;;;;33.65;10.23;;;;;;;;;;6302336;28;20548;-79
2021/12/11 11:15:17;;;;;;;27.67;10.23;;;;;;;;;;6314919;28;20076;-77
2021/12/11 11:18:20;;;;;;;23.20;8.90;;;;;;;;;;6285251;28;20052;-79
2021/12/11 11:21:24;;;;;;;;;;;;;;;;;;6280051;28;20070;-79
2021/12/11 11:24:30;;;;;;;;;;;;;;;;;;6291944;28;20026;-80
2021/12/11 11:27:32;;;;;;;34.03;10.63;;;;;;;;;;6310546;28;19920;-79
2021/12/11 11:30:40;;;;;;;33.10;12.40;;;;;;;;;;6297464;28;20046;-77
2021/12/11 11:33:48;;;;;;;32.50;11.03;;;;;;;;;;6301759;28;20046;-79
2021/12/11 11:36:50;;;;;;;28.93;10.43;;;;;;;;;;6313720;28;20443;-78
2021/12/11 11:39:52;;;;;;;28.13;11.05;;;;;;;;;;6290885;28;20048;-80
2021/12/11 11:42:57;;;;;;;28.55;10.93;;;;;;;;;;6295613;28;20402;-79
2021/12/11 11:45:59;;;;;;;28.77;10.98;;;;;;;;;;6291588;28;20047;-77
2021/12/11 11:49:01;;;;;;;31.23;10.45;;;;;;;;;;6303819;28;20131;-79
2021/12/11 11:52:12;;;;;;;25.75;9.73;;;;;;;;;;6274296;28;20071;-77
2021/12/11 11:55:21;;;;;;;23.23;9.30;;;;;;;;;;6273335;28;20044;-80
2021/12/11 11:58:24;;;;;;;29.98;11.23;;;;;;;;;;6313879;28;20131;-79
2021/12/11 12:01:29;;;;;;;26.63;9.85;;;;;;;;;;6288506;28;20159;-79
2021/12/11 12:04:35;;;;;;;25.65;10.20;;;;;;;;;;6299344;28;20043;-79
2021/12/11 12:07:38;;;;;;;27.88;10.55;;;;;;;;;;6290206;28;20070;-78
2021/12/11 12:10:40;;;;;;;27.63;10.70;;;;;;;;;;6314029;28;20235;-78
2021/12/11 12:13:42;;;;;;;25.38;9.68;;;;;;;;;;6316376;28;20040;-80
2021/12/11 12:17:02;;;;;;;25.30;9.90;;;;;;;;;;6316274;28;20044;-77
2021/12/11 12:20:12;;;;;;;30.80;10.30;;;;;;;;;;6294998;28;20036;-80
2021/12/11 12:23:14;;;;;;;28.50;10.75;;;;;;;;;;6307667;28;20296;-79
2021/12/11 12:26:22;;;;;;;23.92;10.20;;;;;;;;;;6279397;28;20047;-79
2021/12/11 12:29:24;;;;;;;32.28;11.25;;;;;;;;;;6297948;28;20123;-78
2021/12/11 12:32:32;;;;;;;27.67;10.57;;;;;;;;;;6312947;28;20093;-77
2021/12/11 12:35:35;;;;;;;27.80;9.77;;;;;;;;;;6295536;28;20044;-79
2021/12/11 12:38:38;;;;;;;30.30;10.85;;;;;;;;;;6293608;28;20051;-78
2021/12/11 12:41:45;;;;;;;32.88;11.32;;;;;;;;;;6302310;28;20572;-79
2021/12/11 12:44:52;;;;;;;28.35;10.68;;;;;;;;;;6283683;28;20048;-79
2021/12/11 12:47:59;;;;;;;30.70;10.93;;;;;;;;;;6296589;28;20036;-79
2021/12/11 12:51:05;;;;;;;31.30;10.88;;;;;;;;;;6276841;28;20044;-78
2021/12/11 12:54:11;;;;;;;32.78;10.73;;;;;;;;;;6282263;28;20064;-79
2021/12/11 12:57:19;;;;;;;35.17;12.18;;;;;;;;;;6298426;28;20098;-79
2021/12/11 13:00:39;;;;;;;34.28;12.40;;;;;;;;;;6299657;28;20050;-79
2021/12/11 13:03:42;;;;;;;34.00;11.93;;;;;;;;;;6267276;28;20070;-77
2021/12/11 13:06:54;;;;;;;37.40;13.55;;;;;;;;;;6285567;28;20036;-78
2021/12/11 13:10:04;;;;;;;32.25;12.35;;;;;;;;;;6303840;28;20066;-77
2021/12/11 13:13:09;;;;;;;31.80;12.82;;;;;;;;;;6287750;28;20055;-77
2021/12/11 13:16:16;;;;;;;36.42;12.80;;;;;;;;;;6283900;28;20051;-77
2021/12/11 13:19:21;;;;;;;39.70;13.18;;;;;;;;;;6283856;28;20070;-78
2021/12/11 13:22:26;;;;;;;32.60;12.00;;;;;;;;;;6273272;28;20098;-77
2021/12/11 13:25:40;;;;;;;35.85;13.63;;;;;;;;;;6301242;28;20732;-78
2021/12/11 13:28:50;;;;;;;36.95;13.10;;;;;;;;;;6300169;28;20107;-78
2021/12/11 13:32:02;;;;;;;38.45;13.35;;;;;;;;;;6299219;28;20141;-79
2021/12/11 13:35:12;;;;;;;34.53;12.90;;;;;;;;;;6286033;28;20409;-79
2021/12/11 13:38:16;;;;;;;35.75;13.88;;;;;;;;;;6256309;28;20515;-77
2021/12/11 13:41:47;;;;;;;37.05;14.00;;;;;;;;;;6282125;28;20067;-77
2021/12/11 13:44:56;;;;;;;36.05;12.90;;;;;;;;;;6270760;28;20412;-77
2021/12/11 13:47:59;;;;;;;39.92;14.88;;;;;;;;;;6284214;28;20045;-77
2021/12/11 13:51:25;;;;;;;42.25;14.55;;;;;;;;;;6280995;28;20048;-78
2021/12/11 13:54:28;;;;;;;42.47;15.43;;;;;;;;;;6272606;28;20154;-80
2021/12/11 13:57:29;;;;;;;73.55;28.02;;;;;;;;;;6305463;28;20060;-78
2021/12/11 14:00:36;;;;;;;50.20;19.05;;;;;;;;;;6296637;28;20560;-79
2021/12/11 14:03:46;;;;;;;62.20;23.85;;;;;;;;;;6290837;28;20090;-79
2021/12/11 14:07:08;;;;;;;42.88;16.70;;;;;;;;;;6309852;28;20192;-79
2021/12/11 14:10:26;;;;;;;92.15;28.80;;;;;;;;;;6282214;28;20048;-80
2021/12/11 14:13:30;;;;;;;63.80;22.05;;;;;;;;;;6254987;28;20417;-79
2021/12/11 14:16:32;;;;;;;42.15;15.52;;;;;;;;;;6266263;28;20050;-79
2021/12/11 14:19:34;;;;;;;44.22;16.80;;;;;;;;;;6283440;28;20044;-77
2021/12/11 14:22:36;;;;;;;53.63;19.98;;;;;;;;;;6292898;28;20040;-78
2021/12/11 14:25:40;;;;;;;49.78;17.45;;;;;;;;;;6273536;28;20051;-79
2021/12/11 14:28:42;;;;;;;31.17;11.50;;;;;;;;;;6287759;28;20555;-79
2021/12/11 14:31:46;;;;;;;55.38;19.80;;;;;;;;;;6267307;28;20156;-78
2021/12/11 14:34:48;;;;;;;52.45;19.00;;;;;;;;;;6252165;28;20064;-77
2021/12/11 14:37:51;;;;;;;48.47;18.85;;;;;;;;;;6279118;28;20089;-79
2021/12/11 14:40:54;;;;;;;37.83;13.57;;;;;;;;;;6271216;28;20036;-78
2021/12/11 14:43:56;;;;;;;34.25;13.18;;;;;;;;;;6284299;28;20659;-79
2021/12/11 14:47:04;;;;;;;40.40;13.80;;;;;;;;;;6272758;28;20044;-79
2021/12/11 14:50:09;;;;;;;48.55;16.23;;;;;;;;;;6258277;28;20045;-77
2021/12/11 14:53:14;;;;;;;40.70;14.85;;;;;;;;;;6283406;28;20052;-77
2021/12/11 14:56:27;;;;;;;49.33;17.13;;;;;;;;;;6265258;28;20055;-79
2021/12/11 14:59:33;;;;;;;39.60;14.85;;;;;;;;;;6280898;28;20045;-79
2021/12/11 15:02:38;;;;;;;38.65;14.23;;;;;;;;;;6293895;28;20047;-80
2021/12/11 15:05:43;;;;;;;39.35;14.63;;;;;;;;;;6304712;28;20055;-79
2021/12/11 15:08:45;;;;;;;44.95;15.55;;;;;;;;;;6288152;28;20045;-79
2021/12/11 15:11:49;;;;;;;40.22;15.63;;;;;;;;;;6269566;28;20052;-77
2021/12/11 15:14:51;;;;;;;41.17;16.20;;;;;;;;;;6302147;28;20485;-77
2021/12/11 15:17:56;;;;;;;37.63;14.93;;;;;;;;;;6272786;28;20050;-78
2021/12/11 15:21:01;;;;;;;42.30;15.90;;;;;;;;;;6262578;28;20150;-78
2021/12/11 15:24:04;;;;;;;48.97;16.77;;;;;;;;;;6299606;28;20055;-81
2021/12/11 15:27:14;;;;;;;42.60;16.90;;;;;;;;;;6302588;28;20412;-78
2021/12/11 15:30:29;;;;;;;49.50;17.55;;;;;;;;;;6318342;28;20044;-80
2021/12/11 15:33:32;;;;;;;49.85;18.35;;;;;;;;;;6298598;28;20052;-78
2021/12/11 15:36:35;;;;;;;42.25;18.17;;;;;;;;;;6315625;28;20137;-79
2021/12/11 15:39:47;;;;;;;35.80;15.75;;;;;;;;;;6308857;28;20119;-80
2021/12/11 15:42:50;;;;;;;46.13;19.35;;;;;;;;;;6316895;28;20107;-80
2021/12/11 15:45:56;;;;;;;43.20;16.02;;;;;;;;;;6305064;28;20100;-80
2021/12/11 15:48:58;;;;;;;47.55;17.15;;;;;;;;;;6274185;28;20045;-81
2021/12/11 15:52:01;;;;;;;47.42;16.00;;;;;;;;;;6272691;28;20127;-80
2021/12/11 15:55:05;;;;;;;47.42;16.75;;;;;;;;;;6278450;28;20071;-80
2021/12/11 15:58:08;;;;;;;42.30;15.85;;;;;;;;;;6282408;28;20036;-80
2021/12/11 16:01:16;;;;;;;43.87;16.23;;;;;;;;;;6300100;28;20413;-76
2021/12/11 16:04:28;;;;;;;45.20;17.13;;;;;;;;;;6295614;28;20055;-81
2021/12/11 16:07:29;;;;;;;38.67;15.70;;;;;;;;;;6294636;28;20051;-82
2021/12/11 16:10:32;;;;;;;39.70;14.93;;;;;;;;;;6309607;28;20366;-82
2021/12/11 16:13:34;;;;;;;52.65;20.98;;;;;;;;;;6293266;28;20040;-82
2021/12/11 16:16:36;;;;;;;41.40;17.05;;;;;;;;;;6293225;28;20057;-83
2021/12/11 16:19:42;;;;;;;45.20;17.30;;;;;;;;;;6273607;28;20043;-81
2021/12/11 16:22:46;;;;;;;48.47;19.17;;;;;;;;;;6286679;28;20371;-81
2021/12/11 16:25:48;;;;;;;42.03;17.30;;;;;;;;;;6293376;28;20044;-79
2021/12/11 16:28:50;;;;;;;54.72;21.70;;;;;;;;;;6292661;28;20482;-80
2021/12/11 16:31:52;;;;;;;44.20;17.17;;;;;;;;;;6290487;28;20051;-81
2021/12/11 16:34:53;;;;;;;55.10;19.52;;;;;;;;;;6288652;28;20543;-81
2021/12/11 16:37:56;;;;;;;55.55;20.70;;;;;;;;;;6290025;28;20055;-82
2021/12/11 16:41:19;;;;;;;53.88;20.77;;;;;;;;;;6296453;28;20044;-82
2021/12/11 16:44:24;;;;;;;53.05;18.73;;;;;;;;;;6307574;28;20417;-82
2021/12/11 16:47:26;;;;;;;44.08;17.65;;;;;;;;;;6257975;28;20041;-80
2021/12/11 16:50:32;;;;;;;39.67;14.80;;;;;;;;;;6290525;28;20496;-82
2021/12/11 16:53:39;;;;;;;39.88;14.40;;;;;;;;;;6242135;28;20063;-82
2021/12/11 16:56:41;;;;;;;39.30;13.35;;;;;;;;;;6258625;28;20044;-80
2021/12/11 16:59:43;;;;;;;30.67;12.40;;;;;;;;;;6290935;28;20040;-81
2021/12/11 17:02:46;;;;;;;30.23;12.60;;;;;;;;;;6274453;28;20044;-82
2021/12/11 17:05:48;;;;;;;27.83;12.43;;;;;;;;;;6274216;28;20047;-81
2021/12/11 17:08:50;;;;;;;31.95;12.85;;;;;;;;;;6298775;28;20104;-81
2021/12/11 17:11:52;;;;;;;30.17;11.82;;;;;;;;;;6279392;28;20412;-81
2021/12/11 17:14:59;;;;;;;38.97;13.43;;;;;;;;;;6313876;28;20373;-79
2021/12/11 17:18:01;;;;;;;40.80;15.43;;;;;;;;;;6297968;28;20120;-77
2021/12/11 17:21:06;;;;;;;39.45;15.43;;;;;;;;;;6299312;28;20060;-79
2021/12/11 17:24:10;;;;;;;47.25;17.73;;;;;;;;;;6299098;28;20036;-80
2021/12/11 17:27:14;;;;;;;44.78;17.73;;;;;;;;;;6297824;28;20126;-81
2021/12/11 17:30:16;;;;;;;44.50;17.42;;;;;;;;;;6294753;28;20036;-80
2021/12/11 17:33:18;;;;;;;46.70;18.30;;;;;;;;;;6297647;28;20052;-81
2021/12/11 17:36:22;;;;;;;45.40;17.00;;;;;;;;;;6295182;28;20266;-81
2021/12/11 17:39:26;;;;;;;47.67;18.80;;;;;;;;;;6280775;28;20044;-82
2021/12/11 17:42:28;;;;;;;46.38;19.60;;;;;;;;;;6270652;28;20056;-80
2021/12/11 17:45:31;;;;;;;60.35;25.00;;;;;;;;;;6293602;28;20093;-79
2021/12/11 17:48:33;;;;;;;58.08;24.25;;;;;;;;;;6254737;28;20072;-81
2021/12/11 17:51:36;;;;;;;52.72;22.70;;;;;;;;;;6291183;28;20615;-82
2021/12/11 17:54:39;;;;;;;49.50;20.15;;;;;;;;;;6281385;28;20048;-82
2021/12/11 17:57:41;;;;;;;54.47;22.88;;;;;;;;;;6271901;28;20119;-82
2021/12/11 18:00:58;;;;;;;62.22;25.58;;;;;;;;;;6279575;28;20048;-80
2021/12/11 18:04:03;;;;;;;61.17;24.30;;;;;;;;;;6296389;28;20137;-81
2021/12/11 18:07:12;;;;;;;53.35;24.30;;;;;;;;;;6296912;28;20052;-78
2021/12/11 18:10:29;;;;;;;60.85;24.70;;;;;;;;;;6294340;28;20050;-82
2021/12/11 18:13:39;;;;;;;54.63;23.10;;;;;;;;;;6294462;28;20065;-81
2021/12/11 18:17:05;;;;;;;62.25;27.70;;;;;;;;;;6296558;28;20054;-82
2021/12/11 18:20:11;;;;;;;51.03;24.08;;;;;;;;;;6294916;28;20040;-81
2021/12/11 18:23:15;;;;;;;65.00;27.65;;;;;;;;;;6277397;28;20127;-81
2021/12/11 18:26:21;;;;;;;52.55;22.27;;;;;;;;;;6274461;28;20050;-80